PAYA/YAK METAR and TAF weather

Enter ICAO airport designator
Station Type Date Time Source
PAYA METAR 2020/09/20 11:53 UTC NOAA

PAYA 201153Z AUTO 06003KT 10SM -RA BKN048 OVC065 07/07 A2982 RMK AO2 RAB09 SLP098 P0001 60018 70022 T00720067 10083 20067 56012 TSNO


Station Type Date Time Source
PAYA Decoded METAR 2020/09/20 11:53 UTC NOAA

YAKUTAT AIRPORT, AK, United States (PAYA) 59-30N 139-40W 9M
Sep 20, 2020 - 07:53 AM EDT / 2020.09.20 1153 UTC
Wind: from the ENE (060 degrees) at 3 MPH (3 KT):0
Visibility: 10 mile(s):0
Sky conditions: overcast
Weather: light rain
Precipitation last hour: 0.01 inches
Temperature: 45.0 F (7.2 C)
Dew Point: 44.1 F (6.7 C)
Relative Humidity: 96%
Pressure (altimeter): 29.82 in. Hg (1009 hPa)
Pressure tendency: 0.04 inches (1.2 hPa) lower than three hours ago
ob: PAYA 201153Z AUTO 06003KT 10SM -RA BKN048 OVC065 07/07 A2982 RMK AO2 RAB09 SLP098 P0001 60018 70022 T00720067 10083 20067 56012 TSNO
cycle: 12

Station Type Date Time Source
PAYA TAF 2020/09/20 12:36 UTC NOAA

TAF PAYA 201134Z 2012/2112 07007KT 6SM -SHRA OVC050
FM210300 08004KT P6SM VCSH BKN050
AMD LTD TO CLD VIS AND WIND

Example: see airport list